Aviation Digital Data Service (ADDS)

Output produced by METARs form (1649 UTC 20 January 2019)
found at http://www.aviationweather.gov/metar/data/
 
SEGU 201626Z 2018/2118 07006KT 9999 BKN030 BKN100 
     TEMPO 2022/2024 8000 SHRA 
     FM210000 23006KT 9999 FEW013 BKN020 BKN100 
     FM210600 25006KT 9999 FEW013 BKN020 BKN100 
     TEMPO 2107/2110 8000 RA 
     FM211300 05004KT 9999 BKN023 BKN100 TX29/2019Z TN23/2110Z
       
SELT 201620Z 2018/2118 18014KT 9999 BKN030 
     BECMG 2100/210116004KT 
     FM210600 VRB03KT 9999 SCT0005 BKN023 
     FM211200 15008KT 9999 FEW010 BKN030 TX17/2019Z TN10/2111Z
       
SEMT 201620Z 2018/2118 22005KT 9999 BKN023 
     TEMPO 2018/2020 25010KT 
     FM210500 21004KT 9999 OVC020 TX31/2019Z TN24/2110Z
       
SEQM 201620Z 2018/2118 34012KT 9999 BKN033 
     BECMG 2100/2101 04004KT 
     FM210600 VRB03KT 9999 SCT010 BKN016 
     TEMPO 2109/2111 6000 BCFG BKN008 
     FM211300 VRB03KT 9999 BKN023 SCT100 TX21/2020Z TN12/2111Z